Time;durP1;ratioP1;P1;durP2;ratioP2;P2;SDS_P1;SDS_P2;PMS_P1;PMS_P2;Temp;Humidity;BMP_temperature;BMP_pressure;BME280_temperature;BME280_humidity;BME280_pressure;Samples;Min_cycle;Max_cycle;Signal;HPM_P1;HPM_P2
2021/04/03 00:00:36;;;;;;;21.30;12.18;;;;;;;6.39;62.00;100339.91;1701400;81;25939;-76
2021/04/03 00:03:08;;;;;;;19.82;10.53;;;;;;;6.36;61.99;100334.91;1707856;81;25865;-75
2021/04/03 00:05:37;;;;;;;19.32;10.13;;;;;;;6.31;61.87;100342.05;1718525;81;27526;-76
2021/04/03 00:08:05;;;;;;;20.52;10.25;;;;;;;6.24;62.01;100336.56;1741929;81;25797;-75
2021/04/03 00:10:49;;;;;;;19.37;10.63;;;;;;;6.21;62.03;100336.06;1718113;81;26317;-75
2021/04/03 00:13:18;;;;;;;18.02;9.60;;;;;;;6.20;62.11;100338.41;1697641;81;25862;-75
2021/04/03 00:15:47;;;;;;;15.40;9.28;;;;;;;6.20;62.31;100335.23;1712220;81;25951;-75
2021/04/03 00:18:16;;;;;;;17.00;10.65;;;;;;;6.21;62.41;100334.25;1742500;81;28410;-75
2021/04/03 00:20:49;;;;;;;11.40;7.75;;;;;;;6.19;62.47;100336.73;1705381;81;25865;-75
2021/04/03 00:23:20;;;;;;;13.22;7.58;;;;;;;6.20;62.50;100339.22;1705383;81;25860;-75
2021/04/03 00:25:49;;;;;;;14.50;8.35;;;;;;;6.17;62.40;100342.23;1717891;81;26442;-76
2021/04/03 00:28:17;;;;;;;13.90;6.55;;;;;;;6.14;62.47;100336.38;1741765;81;26110;-75
2021/04/03 00:30:44;;;;;;;10.40;6.03;;;;;;;6.11;62.49;100337.57;1735306;81;28440;-75
2021/04/03 00:33:12;;;;;;;11.45;5.90;;;;;;;6.07;62.45;100335.40;1735541;81;26161;-75
2021/04/03 00:35:41;;;;;;;10.60;5.78;;;;;;;6.05;62.38;100340.05;1702151;81;25904;-75
2021/04/03 00:38:11;;;;;;;13.48;5.60;;;;;;;6.01;62.33;100327.56;1744917;81;26490;-75
2021/04/03 00:40:46;;;;;;;11.53;6.58;;;;;;;6.01;62.33;100337.36;1704719;81;25736;-75
2021/04/03 00:43:19;;;;;;;8.83;5.75;;;;;;;6.02;62.36;100331.06;1695380;81;27696;-76
2021/04/03 00:45:48;;;;;;;11.12;5.47;;;;;;;6.03;62.37;100329.56;1718537;81;26152;-75
2021/04/03 00:48:17;;;;;;;9.45;6.08;;;;;;;6.04;62.39;100329.06;1698587;81;25918;-76
2021/04/03 00:50:48;;;;;;;8.90;5.50;;;;;;;6.01;62.39;100326.23;1711901;81;26408;-75
2021/04/03 00:53:19;;;;;;;8.98;4.95;;;;;;;5.98;62.43;100325.73;1698634;81;26124;-75
2021/04/03 00:55:48;;;;;;;8.55;4.80;;;;;;;5.96;62.38;100315.77;1706264;81;27609;-75
2021/04/03 00:58:17;;;;;;;11.12;4.95;;;;;;;5.89;62.16;100320.91;1717028;81;25983;-75
2021/04/03 01:00:46;;;;;;;7.55;4.72;;;;;;;5.87;62.29;100317.59;1705988;81;25675;-75
2021/04/03 01:03:14;;;;;;;13.40;5.15;;;;;;;5.84;62.48;100312.58;1715737;81;26490;-75
2021/04/03 01:05:43;;;;;;;9.48;5.42;;;;;;;5.80;62.47;100324.51;1702728;81;26682;-75
2021/04/03 01:08:11;;;;;;;8.15;4.87;;;;;;;5.80;62.48;100321.01;1743829;81;26979;-76
2021/04/03 01:10:52;;;;;;;9.25;5.12;;;;;;;5.83;62.57;100316.22;1831463;77;25654;-75
2021/04/03 01:13:50;;;;;;;9.48;4.65;;;;;;;5.78;62.72;100316.36;1765936;80;26452;-76
2021/04/03 01:16:46;;;;;;;8.00;4.50;;;;;;;5.76;62.70;100321.84;1792543;79;28592;-75
2021/04/03 01:19:23;;;;;;;7.00;4.67;;;;;;;5.74;62.81;100318.52;1791369;79;25977;-76
2021/04/03 01:22:19;;;;;;;11.70;4.85;;;;;;;5.69;62.93;100321.34;1789743;79;25738;-76
2021/04/03 01:25:19;;;;;;;9.40;5.17;;;;;;;5.68;62.97;100322.31;1730486;81;25726;-76
2021/04/03 01:28:14;;;;;;;6.12;4.33;;;;;;;5.65;62.96;100322.14;1744615;81;26472;-75
2021/04/03 01:30:46;;;;;;;9.90;4.92;;;;;;;5.67;63.04;100321.97;1747874;81;28212;-76
2021/04/03 01:33:18;;;;;;;8.80;4.70;;;;;;;5.68;63.01;100327.14;1724564;81;26468;-76
2021/04/03 01:35:53;;;;;;;7.12;4.00;;;;;;;5.71;62.96;100326.80;1724467;81;25832;-75
2021/04/03 01:38:30;;;;;;;9.93;5.25;;;;;;;5.72;62.90;100323.16;1727090;82;25852;-75
2021/04/03 01:41:00;;;;;;;7.62;5.05;;;;;;;5.75;62.96;100329.98;1725374;82;26497;-75
2021/04/03 01:43:32;;;;;;;8.93;5.20;;;;;;;5.77;63.04;100326.67;1718709;81;27607;-75
2021/04/03 01:46:01;;;;;;;12.70;5.60;;;;;;;5.80;62.98;100335.14;1718592;82;26450;-75
2021/04/03 01:48:29;;;;;;;6.87;4.50;;;;;;;5.83;63.19;100339.30;1711286;83;25797;-76
2021/04/03 01:50:57;;;;;;;9.03;4.60;;;;;;;5.83;63.08;100335.31;1657595;82;25846;-76
2021/04/03 01:53:25;;;;;;;11.88;5.12;;;;;;;5.82;63.20;100340.28;1676983;82;26164;-75
2021/04/03 01:55:57;;;;;;;9.75;4.40;;;;;;;5.78;63.30;100334.95;1696773;83;27358;-75
2021/04/03 01:58:27;;;;;;;8.50;5.15;;;;;;;5.78;63.42;100339.78;1710364;83;26685;-75
2021/04/03 02:00:54;;;;;;;10.60;5.42;;;;;;;5.77;63.77;100344.78;1702958;82;25804;-76
2021/04/03 02:03:22;;;;;;;9.03;5.40;;;;;;;5.76;63.83;100348.91;1730578;82;25936;-76
2021/04/03 02:05:50;;;;;;;10.48;5.22;;;;;;;5.76;63.89;100344.43;1690750;83;25391;-75
2021/04/03 02:08:34;;;;;;;9.43;5.50;;;;;;;5.82;64.33;100342.94;1789550;79;25886;-75
2021/04/03 02:11:10;;;;;;;10.32;5.65;;;;;;;5.72;64.18;100347.57;1728098;81;26045;-76
2021/04/03 02:13:40;;;;;;;9.05;4.65;;;;;;;5.66;64.30;100342.91;1753279;80;27531;-75
2021/04/03 02:16:09;;;;;;;8.33;4.50;;;;;;;5.59;64.03;100343.20;1732454;80;25842;-75
2021/04/03 02:18:39;;;;;;;10.90;5.10;;;;;;;5.51;64.36;100340.53;1714815;80;25957;-75
2021/04/03 02:21:09;;;;;;;4.42;2.77;;;;;;;5.45;64.27;100342.82;1731745;80;25763;-75
2021/04/03 02:23:38;;;;;;;7.22;3.67;;;;;;;5.38;64.25;100354.26;1762318;80;25535;-75
2021/04/03 02:26:08;;;;;;;4.97;2.67;;;;;;;5.22;64.87;100356.34;1735491;80;27538;-76
2021/04/03 02:28:38;;;;;;;5.97;2.80;;;;;;;5.09;65.42;100352.47;1734284;80;26190;-75
2021/04/03 02:31:06;;;;;;;3.83;2.45;;;;;;;4.97;66.18;100355.87;1735156;80;25764;-75
2021/04/03 02:33:33;;;;;;;3.83;2.40;;;;;;;4.86;66.77;100349.48;1767194;80;25736;-75
2021/04/03 02:36:01;;;;;;;6.22;2.75;;;;;;;4.79;66.61;100347.11;1696504;80;25846;-75
2021/04/03 02:38:28;;;;;;;7.08;2.95;;;;;;;4.74;67.37;100353.41;1709860;80;26843;-75
2021/04/03 02:41:08;;;;;;;6.42;2.98;;;;;;;4.74;67.39;100350.75;1795086;79;25741;-75
2021/04/03 02:44:04;;;;;;;4.12;2.80;;;;;;;4.64;67.77;100356.66;1718379;82;26371;-75
2021/04/03 02:46:43;;;;;;;6.58;3.05;;;;;;;4.59;67.65;100353.62;1734473;82;28553;-75
2021/04/03 02:49:29;;;;;;;5.95;2.90;;;;;;;4.54;68.27;100355.89;1706472;82;26070;-76
2021/04/03 02:51:59;;;;;;;4.62;3.10;;;;;;;4.48;68.48;100341.92;1708175;82;25793;-75
2021/04/03 02:54:29;;;;;;;5.20;2.50;;;;;;;4.41;69.40;100344.84;1706731;82;32731;-75
2021/04/03 02:57:00;;;;;;;3.52;2.30;;;;;;;4.32;69.64;100347.92;1738349;82;25817;-76
2021/04/03 02:59:32;;;;;;;4.47;2.50;;;;;;;4.26;69.68;100358.30;1685140;82;28138;-76
2021/04/03 03:02:04;;;;;;;3.62;2.40;;;;;;;4.23;70.34;100361.27;1710588;82;25746;-76
2021/04/03 03:04:34;;;;;;;4.53;2.35;;;;;;;4.22;70.41;100364.89;1728525;82;26494;-76
2021/04/03 03:07:01;;;;;;;4.55;2.55;;;;;;;4.16;70.92;100374.78;1733490;82;25832;-75
2021/04/03 03:09:31;;;;;;;4.22;2.87;;;;;;;4.08;71.89;100371.58;1683896;82;25817;-76
2021/04/03 03:12:01;;;;;;;3.40;3.10;;;;;;;4.02;71.87;100376.13;1704113;82;27533;-75
2021/04/03 03:14:31;;;;;;;3.95;2.90;;;;;;;3.98;72.29;100382.72;1706191;82;25936;-76
2021/04/03 03:16:59;;;;;;;6.80;3.10;;;;;;;3.90;72.67;100380.83;1706593;82;25865;-76
2021/04/03 03:19:28;;;;;;;4.95;2.90;;;;;;;3.85;72.74;100380.44;1698577;82;26060;-76
2021/04/03 03:21:57;;;;;;;6.60;3.47;;;;;;;3.80;73.76;100379.23;1681869;82;25861;-76
2021/04/03 03:24:26;;;;;;;5.20;2.92;;;;;;;3.76;73.33;100387.13;1706465;82;27572;-76
2021/04/03 03:26:55;;;;;;;6.43;3.90;;;;;;;3.71;73.87;100380.11;1734695;81;26062;-76
2021/04/03 03:29:24;;;;;;;6.95;3.40;;;;;;;3.66;73.97;100387.17;1663435;82;25776;-76
2021/04/03 03:31:52;;;;;;;4.80;3.02;;;;;;;3.62;74.82;100386.28;1736738;82;26137;-76
2021/04/03 03:34:22;;;;;;;7.75;3.83;;;;;;;3.54;75.20;100394.98;1710661;82;25989;-76
2021/04/03 03:36:51;;;;;;;6.00;3.67;;;;;;;3.46;75.67;100393.56;1733057;82;27711;-76
2021/04/03 03:39:20;;;;;;;4.28;3.33;;;;;;;3.40;74.98;100397.28;1664848;82;25829;-76
2021/04/03 03:41:48;;;;;;;8.10;3.72;;;;;;;3.33;75.80;100390.89;1733971;82;26460;-75
2021/04/03 03:44:16;;;;;;;5.58;3.80;;;;;;;3.29;76.05;100396.14;1708227;82;26414;-76
2021/04/03 03:46:44;;;;;;;9.13;3.90;;;;;;;3.26;75.77;100392.44;1733884;82;26466;-75
2021/04/03 03:49:12;;;;;;;5.97;3.95;;;;;;;3.25;75.36;100398.73;1684476;82;27716;-76
2021/04/03 03:51:40;;;;;;;8.63;4.10;;;;;;;3.24;75.72;100384.66;1681034;82;25805;-76
2021/04/03 03:54:17;;;;;;;9.93;4.65;;;;;;;3.31;75.66;100395.02;1748175;79;25951;-75
2021/04/03 03:56:44;;;;;;;5.92;4.33;;;;;;;3.29;75.46;100393.48;1692458;82;25806;-75
2021/04/03 03:59:14;;;;;;;6.95;4.03;;;;;;;3.30;75.50;100389.84;1725020;82;28595;-75
2021/04/03 04:01:41;;;;;;;7.05;4.10;;;;;;;3.33;75.54;100385.59;1692087;82;25831;-75
2021/04/03 04:04:09;;;;;;;6.08;3.85;;;;;;;3.34;75.80;100388.57;1712856;82;25762;-76
2021/04/03 04:06:37;;;;;;;7.05;4.53;;;;;;;3.32;75.51;100383.43;1695354;82;25903;-75
2021/04/03 04:09:07;;;;;;;10.10;4.92;;;;;;;3.37;75.42;100394.91;1721455;82;25825;-75
2021/04/03 04:11:44;;;;;;;7.47;3.95;;;;;;;3.49;75.64;100389.28;1793141;79;25738;-75
2021/04/03 04:14:13;;;;;;;7.55;4.05;;;;;;;3.49;75.64;100393.25;1730629;80;25827;-75
2021/04/03 04:16:43;;;;;;;9.80;4.33;;;;;;;3.51;75.41;100401.88;1760813;80;28277;-75
2021/04/03 04:19:12;;;;;;;7.35;4.40;;;;;;;3.56;75.49;100398.31;1734085;80;26516;-75
2021/04/03 04:21:40;;;;;;;7.25;4.40;;;;;;;3.62;75.48;100403.50;1717526;80;25807;-76
2021/04/03 04:24:08;;;;;;;6.33;4.17;;;;;;;3.61;75.41;100409.80;1710199;80;25943;-75
2021/04/03 04:26:37;;;;;;;6.75;4.05;;;;;;;3.60;75.53;100413.41;1652165;83;26089;-75
2021/04/03 04:29:05;;;;;;;5.25;4.28;;;;;;;3.59;75.75;100413.08;1647342;85;27639;-75
2021/04/03 04:31:32;;;;;;;6.87;4.37;;;;;;;3.54;75.79;100409.55;1662672;83;25892;-75
2021/04/03 04:34:05;;;;;;;5.80;3.95;;;;;;;3.57;75.89;100415.05;1666637;85;25853;-76
2021/04/03 04:36:33;;;;;;;7.87;4.40;;;;;;;3.61;75.90;100415.09;1686070;84;26238;-75
2021/04/03 04:39:03;;;;;;;7.22;4.15;;;;;;;3.63;75.88;100412.64;1660522;85;26679;-75
2021/04/03 04:41:32;;;;;;;8.88;3.75;;;;;;;3.71;75.92;100414.06;1660452;85;28440;-76
2021/04/03 04:44:00;;;;;;;7.83;4.78;;;;;;;3.75;75.93;100416.75;1659765;85;25737;-75
2021/04/03 04:46:28;;;;;;;7.00;4.37;;;;;;;3.75;75.81;100411.94;1685614;82;25821;-75
2021/04/03 04:48:56;;;;;;;6.83;4.40;;;;;;;3.77;75.93;100416.11;1669445;84;25814;-75
2021/04/03 04:51:25;;;;;;;6.08;4.20;;;;;;;3.81;75.92;100414.83;1655738;83;25769;-75
2021/04/03 04:53:54;;;;;;;6.28;3.98;;;;;;;3.83;75.97;100414.67;1671797;84;27106;-75
2021/04/03 04:56:23;;;;;;;5.20;3.62;;;;;;;3.79;76.02;100414.15;1718890;83;25858;-75
2021/04/03 04:58:53;;;;;;;10.30;4.20;;;;;;;3.74;76.23;100419.05;1651010;84;25927;-75
2021/04/03 05:01:22;;;;;;;5.40;4.10;;;;;;;3.68;76.24;100419.64;1667864;83;26145;-75
2021/04/03 05:03:50;;;;;;;6.08;3.77;;;;;;;3.64;76.62;100419.59;1695681;84;26226;-75
2021/04/03 05:06:17;;;;;;;6.53;3.95;;;;;;;3.60;76.74;100420.03;1718515;83;28249;-75
2021/04/03 05:08:44;;;;;;;7.72;4.42;;;;;;;3.56;76.80;100421.30;1672369;84;26453;-75
2021/04/03 05:11:12;;;;;;;5.90;3.67;;;;;;;3.56;77.08;100427.45;1690073;83;25391;-76
2021/04/03 05:13:39;;;;;;;10.50;4.65;;;;;;;3.53;77.32;100427.72;1650109;83;25775;-76
2021/04/03 05:16:06;;;;;;;7.70;4.08;;;;;;;3.52;77.50;100433.17;1700440;83;25852;-75
2021/04/03 05:18:34;;;;;;;9.20;4.53;;;;;;;3.49;77.51;100437.42;1663072;82;28474;-75
2021/04/03 05:21:03;;;;;;;6.53;4.17;;;;;;;3.44;77.99;100439.21;1677553;82;26465;-76
2021/04/03 05:23:30;;;;;;;7.60;4.40;;;;;;;3.43;78.21;100442.82;1735805;82;25836;-75
2021/04/03 05:25:57;;;;;;;7.00;4.05;;;;;;;3.43;78.20;100441.50;1703846;83;26445;-75
2021/04/03 05:28:25;;;;;;;7.55;4.75;;;;;;;3.46;78.69;100443.03;1683207;82;26038;-75
2021/04/03 05:30:52;;;;;;;7.70;4.47;;;;;;;3.47;78.89;100447.33;1698524;83;27612;-75
2021/04/03 05:33:20;;;;;;;9.03;5.37;;;;;;;3.49;79.12;100445.37;1672618;83;25992;-75
2021/04/03 05:35:47;;;;;;;8.58;5.22;;;;;;;3.49;78.76;100442.23;1697168;83;26443;-75
2021/04/03 05:38:15;;;;;;;8.33;5.05;;;;;;;3.54;79.30;100437.83;1665123;84;26516;-75
2021/04/03 05:40:42;;;;;;;7.12;5.40;;;;;;;3.55;79.73;100442.97;1673254;84;25907;-76
2021/04/03 05:43:10;;;;;;;11.70;6.60;;;;;;;3.59;80.22;100435.59;1672664;84;26627;-75
2021/04/03 05:45:39;;;;;;;7.95;5.40;;;;;;;3.62;79.79;100433.48;1697218;84;26505;-76
2021/04/03 05:48:08;;;;;;;9.13;6.15;;;;;;;3.63;80.12;100429.02;1628990;84;25894;-75
2021/04/03 05:50:40;;;;;;;10.30;6.53;;;;;;;3.64;80.41;100434.16;1673366;84;25768;-75
2021/04/03 05:53:08;;;;;;;9.98;6.72;;;;;;;3.66;79.92;100440.63;1697266;84;25763;-75
2021/04/03 05:55:35;;;;;;;11.45;7.45;;;;;;;3.67;79.73;100443.16;1697254;84;27723;-75
2021/04/03 05:58:03;;;;;;;9.50;6.97;;;;;;;3.72;79.98;100444.04;1697298;84;25930;-75
2021/04/03 06:00:31;;;;;;;14.15;6.72;;;;;;;3.76;79.92;100442.76;1672991;84;25810;-75
2021/04/03 06:02:58;;;;;;;9.38;6.78;;;;;;;3.82;80.04;100440.36;1650311;84;25875;-75
2021/04/03 06:05:26;;;;;;;12.53;7.85;;;;;;;3.87;80.00;100446.03;1696466;83;25802;-75
2021/04/03 06:07:54;;;;;;;11.25;6.58;;;;;;;3.93;80.22;100440.65;1678138;83;27543;-75
2021/04/03 06:10:21;;;;;;;10.70;7.92;;;;;;;4.00;79.96;100442.22;1680084;83;26172;-76
2021/04/03 06:12:53;;;;;;;14.20;9.20;;;;;;;4.02;80.14;100446.87;1701926;82;25798;-76
2021/04/03 06:15:29;;;;;;;13.90;8.40;;;;;;;4.03;79.88;100443.22;1699410;83;25963;-75
2021/04/03 06:17:58;;;;;;;12.45;7.40;;;;;;;4.02;80.00;100449.52;1698844;83;26060;-75
2021/04/03 06:20:39;;;;;;;11.22;7.28;;;;;;;4.00;79.83;100452.81;1660301;83;28533;-75
2021/04/03 06:23:08;;;;;;;;;;;;;;;3.99;80.31;100449.81;1656440;84;25931;-75
2021/04/03 06:25:57;;;;;;;16.48;8.33;;;;;;;3.99;80.10;100456.44;1674905;83;25796;-75
2021/04/03 06:28:29;;;;;;;11.30;6.78;;;;;;;3.97;80.07;100451.77;1677687;83;25723;-75
2021/04/03 06:31:18;;;;;;;12.68;7.72;;;;;;;4.01;80.43;100457.12;1710307;83;32579;-75
2021/04/03 06:33:46;;;;;;;10.28;7.72;;;;;;;4.01;79.81;100453.98;1675654;83;28341;-75
2021/04/03 06:36:17;;;;;;;12.65;8.50;;;;;;;4.02;80.04;100461.45;1680057;84;25808;-75
2021/04/03 06:38:50;;;;;;;12.25;7.78;;;;;;;4.01;80.02;100455.31;1682485;84;32632;-75
2021/04/03 06:41:27;;;;;;;13.50;8.08;;;;;;;4.03;79.89;100462.62;1678434;83;25851;-75
2021/04/03 06:44:09;;;;;;;11.03;7.00;;;;;;;4.04;79.75;100466.95;1682918;83;25727;-75
2021/04/03 06:46:42;;;;;;;14.55;9.20;;;;;;;4.05;78.92;100456.67;1639044;83;27411;-76
2021/04/03 06:49:11;;;;;;;10.05;6.28;;;;;;;4.10;79.16;100464.19;1675016;85;25819;-75
2021/04/03 06:51:40;;;;;;;10.53;7.15;;;;;;;4.13;77.93;100470.53;1656855;83;25812;-75
2021/04/03 06:54:10;;;;;;;9.95;6.87;;;;;;;4.10;77.19;100479.61;1656968;83;26403;-76
2021/04/03 06:56:39;;;;;;;8.60;5.00;;;;;;;4.03;77.16;100469.73;1659769;85;25930;-75
2021/04/03 06:59:14;;;;;;;10.28;5.75;;;;;;;4.03;77.16;100469.73;1670894;85;27554;-75
2021/04/03 07:01:55;;;;;;;9.90;6.53;;;;;;;4.05;76.71;100483.18;1665316;83;26416;-77
2021/04/03 07:04:42;;;;;;;8.45;5.42;;;;;;;4.05;76.42;100485.83;1676153;82;25653;-76
2021/04/03 07:07:11;;;;;;;7.95;6.58;;;;;;;4.05;76.39;100493.78;1685204;83;26219;-75
2021/04/03 07:09:39;;;;;;;6.55;4.60;;;;;;;4.04;75.92;100500.08;1702622;82;25880;-76
2021/04/03 07:12:11;;;;;;;11.28;5.75;;;;;;;4.03;75.97;100498.39;1701624;83;27530;-76
2021/04/03 07:14:40;;;;;;;7.83;5.30;;;;;;;4.03;76.33;100505.02;1684973;83;26203;-76
2021/04/03 07:17:10;;;;;;;7.03;4.28;;;;;;;4.10;76.34;100506.11;1673253;85;25854;-76
2021/04/03 07:19:41;;;;;;;6.53;4.72;;;;;;;4.12;74.85;100509.45;1666703;85;25762;-76
2021/04/03 07:22:12;;;;;;;6.80;5.00;;;;;;;4.14;75.28;100510.12;1694835;83;25807;-75
2021/04/03 07:24:43;;;;;;;10.10;4.95;;;;;;;4.20;75.17;100512.67;1691387;83;28488;-76
2021/04/03 07:27:10;;;;;;;8.23;4.62;;;;;;;4.25;75.20;100510.42;1685061;83;25812;-75
2021/04/03 07:29:49;;;;;;;9.15;4.15;;;;;;;4.32;75.42;100525.57;1677428;85;26431;-78
2021/04/03 07:32:39;;;;;;;10.23;4.53;;;;;;;4.40;75.01;100524.84;1696798;83;26515;-76
2021/04/03 07:35:21;;;;;;;6.45;4.03;;;;;;;4.45;75.40;100528.70;1681307;83;32746;-77
2021/04/03 07:37:54;;;;;;;7.80;5.17;;;;;;;4.51;75.05;100533.92;1681637;83;27520;-77
2021/04/03 07:40:30;;;;;;;8.20;5.08;;;;;;;4.53;75.39;100542.05;1668923;85;26191;-76
2021/04/03 07:43:04;;;;;;;6.60;4.72;;;;;;;4.57;74.01;100539.95;1676513;83;26791;-76
2021/04/03 07:45:41;;;;;;;7.35;4.05;;;;;;;4.53;73.53;100548.67;1673716;83;25781;-76
2021/04/03 07:48:14;;;;;;;9.05;4.37;;;;;;;4.53;73.48;100553.98;1697306;83;25767;-76
2021/04/03 07:50:50;;;;;;;9.15;4.87;;;;;;;4.55;73.44;100559.16;1672882;83;27539;-76
2021/04/03 07:53:46;;;;;;;7.33;4.90;;;;;;;4.57;73.57;100558.03;1682545;83;26118;-76
2021/04/03 07:56:20;;;;;;;6.05;4.53;;;;;;;4.64;73.55;100562.25;1681278;84;25920;-75
2021/04/03 07:58:57;;;;;;;9.80;5.10;;;;;;;4.73;73.04;100564.50;1660873;85;25623;-76
2021/04/03 08:01:30;;;;;;;6.53;4.50;;;;;;;4.79;73.03;100579.30;1672195;83;25752;-77
2021/04/03 08:04:06;;;;;;;8.38;5.67;;;;;;;4.80;72.63;100575.67;1637875;84;27534;-74
2021/04/03 08:06:41;;;;;;;6.37;4.83;;;;;;;4.82;72.40;100575.52;1649611;86;25396;-74
2021/04/03 08:09:15;;;;;;;7.12;4.42;;;;;;;4.82;72.21;100575.03;1708599;83;25844;-76
2021/04/03 08:11:47;;;;;;;7.90;4.42;;;;;;;4.87;71.08;100579.41;1708304;81;25638;-79
2021/04/03 08:14:16;;;;;;;5.55;4.50;;;;;;;4.90;71.36;100583.06;1648794;85;25895;-75
2021/04/03 08:16:44;;;;;;;7.03;4.85;;;;;;;4.99;71.90;100582.16;1650447;84;27546;-75
2021/04/03 08:19:14;;;;;;;9.08;4.87;;;;;;;5.16;71.50;100584.47;1672495;83;25953;-74
2021/04/03 08:21:45;;;;;;;5.70;4.30;;;;;;;5.24;71.31;100584.53;1680706;83;25837;-73
2021/04/03 08:24:14;;;;;;;;;;;;;;;5.41;70.96;100587.66;1676435;83;25977;-74
2021/04/03 08:26:43;;;;;;;9.00;4.62;;;;;;;5.62;71.59;100586.86;1699124;83;26457;-74
2021/04/03 08:29:38;;;;;;;8.58;4.05;;;;;;;5.73;71.16;100587.91;1681888;83;28436;-75
2021/04/03 08:32:07;;;;;;;10.15;4.83;;;;;;;5.85;69.90;100584.05;1639984;83;25936;-75
2021/04/03 08:34:44;;;;;;;7.78;5.10;;;;;;;5.96;69.73;100590.44;1653215;83;25892;-74
2021/04/03 08:37:14;;;;;;;7.78;4.17;;;;;;;6.07;69.59;100594.13;1645643;83;26340;-75
2021/04/03 08:39:43;;;;;;;4.92;4.12;;;;;;;6.15;69.37;100596.02;1700731;83;25851;-75
2021/04/03 08:42:12;;;;;;;7.25;4.28;;;;;;;6.12;68.36;100599.82;1660667;83;27548;-76
2021/04/03 08:44:44;;;;;;;6.42;4.20;;;;;;;6.01;67.42;100605.89;1706452;83;25773;-75
2021/04/03 08:47:16;;;;;;;9.85;4.62;;;;;;;5.84;66.92;100608.95;1655808;83;25895;-76
2021/04/03 08:49:44;;;;;;;4.50;3.33;;;;;;;5.80;67.92;100611.55;1670181;84;25859;-75
2021/04/03 08:52:13;;;;;;;6.15;4.22;;;;;;;5.84;67.32;100615.59;1639573;83;25860;-75
2021/04/03 08:54:43;;;;;;;5.55;3.83;;;;;;;5.82;68.05;100618.03;1705790;83;27543;-76
2021/04/03 08:57:31;;;;;;;9.03;4.37;;;;;;;5.80;67.12;100624.84;1680700;83;25838;-76
2021/04/03 09:00:00;;;;;;;5.12;3.60;;;;;;;5.80;67.65;100630.16;1703688;83;25779;-75
2021/04/03 09:02:31;;;;;;;;;;;;;;;5.82;67.22;100624.67;1674876;84;25881;-76
2021/04/03 09:05:05;;;;;;;;;;;;;;;6.03;66.94;100618.56;1661859;84;26495;-75
2021/04/03 09:07:34;;;;;;;8.85;3.25;;;;;;;6.20;66.27;100631.77;1674004;84;27749;-75
2021/04/03 09:10:08;;;;;;;6.10;3.50;;;;;;;6.27;65.97;100627.98;1629326;84;26471;-75
2021/04/03 09:12:45;;;;;;;5.30;3.90;;;;;;;6.30;65.32;100617.53;1835939;77;25755;-74
2021/04/03 09:15:17;;;;;;;4.62;3.20;;;;;;;6.16;64.39;100634.90;1771824;79;25830;-75
2021/04/03 09:17:52;;;;;;;;;;;;;;;6.08;64.83;100628.21;1799206;79;27741;-75
2021/04/03 09:20:26;;;;;;;5.58;3.45;;;;;;;6.08;65.24;100635.70;1784203;80;26239;-76
2021/04/03 09:22:57;;;;;;;6.50;2.90;;;;;;;6.19;64.41;100630.61;1761550;79;26457;-76
2021/04/03 09:25:30;;;;;;;6.20;3.30;;;;;;;6.37;63.76;100618.57;1765025;79;25363;-75
2021/04/03 09:28:11;;;;;;;6.47;4.12;;;;;;;6.56;65.69;100636.45;1756535;80;25992;-75
2021/04/03 09:30:43;;;;;;;5.55;3.60;;;;;;;6.64;62.20;100628.98;1757485;80;27595;-75
2021/04/03 09:33:21;;;;;;;7.15;3.50;;;;;;;6.53;63.21;100635.92;1760220;79;25811;-75
2021/04/03 09:35:53;;;;;;;4.15;3.20;;;;;;;6.46;63.11;100637.05;1733412;80;26467;-75
2021/04/03 09:38:33;;;;;;;4.72;3.30;;;;;;;6.41;63.06;100646.52;1750037;79;26037;-74
2021/04/03 09:41:00;;;;;;;3.47;2.30;;;;;;;6.37;63.11;100644.69;1706311;82;26365;-75
2021/04/03 09:43:43;;;;;;;3.92;2.40;;;;;;;6.33;61.20;100647.30;1705198;82;28538;-74
2021/04/03 09:46:13;;;;;;;3.08;2.52;;;;;;;6.28;59.90;100640.31;1727434;82;25471;-75
2021/04/03 09:48:43;;;;;;;6.22;2.77;;;;;;;6.41;60.99;100639.88;1709430;81;25833;-75
2021/04/03 09:51:11;;;;;;;4.00;2.27;;;;;;;6.57;61.33;100632.78;1716227;81;25899;-75
2021/04/03 09:53:39;;;;;;;2.70;2.00;;;;;;;6.74;59.87;100629.19;1723890;81;25721;-74
2021/04/03 09:56:08;;;;;;;2.75;1.85;;;;;;;6.93;60.28;100629.41;1724007;81;27067;-75
2021/04/03 09:58:38;;;;;;;2.45;2.02;;;;;;;7.14;60.31;100623.16;1711439;81;25892;-75
2021/04/03 10:01:08;;;;;;;4.17;1.85;;;;;;;7.36;60.70;100626.98;1688391;81;26527;-75
2021/04/03 10:03:39;;;;;;;3.80;1.82;;;;;;;7.62;60.93;100621.84;1671589;81;35104;-74
2021/04/03 10:06:06;;;;;;;6.62;1.95;;;;;;;7.84;56.75;100628.83;1681456;82;25896;-75
2021/04/03 10:08:34;;;;;;;2.62;1.40;;;;;;;7.88;56.65;100620.32;1671229;83;27579;-75
2021/04/03 10:11:02;;;;;;;3.25;1.60;;;;;;;7.83;54.75;100621.31;1683779;83;26310;-75
2021/04/03 10:13:30;;;;;;;2.22;1.10;;;;;;;7.71;53.64;100627.51;1693070;82;25857;-76
2021/04/03 10:15:58;;;;;;;2.98;1.50;;;;;;;7.58;52.65;100623.18;1731525;82;25895;-75
2021/04/03 10:18:25;;;;;;;4.53;1.40;;;;;;;7.44;52.41;100621.69;1705682;82;25722;-75
2021/04/03 10:20:53;;;;;;;3.45;1.40;;;;;;;7.34;52.86;100623.66;1687491;82;27541;-75
2021/04/03 10:23:20;;;;;;;5.42;1.98;;;;;;;7.48;53.31;100615.02;1686993;83;25938;-75
2021/04/03 10:25:48;;;;;;;3.00;1.60;;;;;;;7.72;53.79;100620.32;1725571;82;25381;-75
2021/04/03 10:28:15;;;;;;;3.75;1.60;;;;;;;7.80;53.91;100613.14;1704729;82;25807;-76
2021/04/03 10:30:43;;;;;;;3.33;1.67;;;;;;;7.87;53.84;100611.16;1725459;82;25799;-75
2021/04/03 10:33:10;;;;;;;3.72;1.52;;;;;;;7.99;53.01;100611.97;1695430;83;27637;-77
2021/04/03 10:35:38;;;;;;;5.20;1.47;;;;;;;8.14;54.02;100610.77;1707831;82;26406;-76
2021/04/03 10:38:05;;;;;;;3.83;1.80;;;;;;;8.21;53.58;100615.23;1706027;82;26298;-76
2021/04/03 10:40:33;;;;;;;2.75;1.20;;;;;;;8.20;51.49;100617.59;1685664;82;26333;-76
2021/04/03 10:43:01;;;;;;;3.60;1.45;;;;;;;8.08;51.01;100610.96;1687268;83;26424;-76
2021/04/03 10:45:30;;;;;;;2.02;1.20;;;;;;;7.84;53.30;100639.00;1722080;82;27066;-76
2021/04/03 10:47:58;;;;;;;4.12;1.20;;;;;;;7.53;54.97;100641.48;1653646;83;25732;-76
2021/04/03 10:50:25;;;;;;;3.37;1.20;;;;;;;7.30;55.84;100639.64;1694479;83;25855;-76
2021/04/03 10:52:55;;;;;;;2.50;1.30;;;;;;;7.13;56.57;100649.94;1700341;82;26089;-77
2021/04/03 10:55:23;;;;;;;2.17;1.10;;;;;;;7.00;57.23;100643.74;1709433;82;25816;-76
2021/04/03 10:57:50;;;;;;;2.22;1.12;;;;;;;7.00;58.02;100647.25;1706426;82;27522;-76
2021/04/03 11:00:23;;;;;;;2.10;1.30;;;;;;;7.12;60.42;100645.09;1685347;82;26106;-73
2021/04/03 11:02:50;;;;;;;2.50;1.17;;;;;;;7.32;59.89;100657.13;1713830;82;25866;-75
2021/04/03 11:05:18;;;;;;;3.08;1.05;;;;;;;7.41;59.18;100656.64;1710874;82;26405;-75
2021/04/03 11:07:45;;;;;;;2.90;0.90;;;;;;;7.33;59.52;100666.81;1714554;81;26225;-74
2021/04/03 11:10:13;;;;;;;1.37;0.80;;;;;;;7.12;60.35;100675.73;1691195;82;27625;-75
2021/04/03 11:12:41;;;;;;;2.52;0.75;;;;;;;6.96;60.35;100672.54;1712900;82;26128;-75
2021/04/03 11:15:10;;;;;;;1.90;0.60;;;;;;;6.84;60.81;100665.02;1712091;82;25838;-76
2021/04/03 11:17:38;;;;;;;0.75;0.60;;;;;;;6.76;61.18;100666.29;1696795;82;26058;-75
2021/04/03 11:20:09;;;;;;;1.47;0.60;;;;;;;6.69;58.78;100674.08;1644093;84;25859;-75
2021/04/03 11:22:41;;;;;;;1.20;0.55;;;;;;;6.53;59.35;100675.35;1677002;85;27545;-75
2021/04/03 11:25:09;;;;;;;0.40;0.40;;;;;;;6.36;59.37;100688.72;1675155;85;26334;-75
2021/04/03 11:27:37;;;;;;;1.52;0.60;;;;;;;6.14;60.67;100699.38;1633533;85;26459;-75
2021/04/03 11:32:49;;;;;;;3.37;0.90;;;;;;;5.89;61.98;100701.04;1831299;77;26236;-76
2021/04/03 11:35:23;;;;;;;2.67;0.55;;;;;;;5.79;63.09;100705.59;1764519;79;25817;-74
2021/04/03 11:37:51;;;;;;;0.65;0.50;;;;;;;5.91;62.89;100699.55;1790943;79;27588;-76
2021/04/03 11:40:20;;;;;;;2.47;0.70;;;;;;;6.11;62.26;100701.04;1736713;79;26098;-75
2021/04/03 11:42:53;;;;;;;4.08;1.12;;;;;;;6.36;63.08;100698.03;1743702;79;26497;-75
2021/04/03 11:45:19;;;;;;;1.50;1.00;;;;;;;6.62;62.75;100692.20;1761044;79;25881;-75
2021/04/03 11:47:47;;;;;;;5.28;1.25;;;;;;;6.81;63.09;100687.95;1785182;79;25893;-74
2021/04/03 11:50:15;;;;;;;1.05;0.93;;;;;;;7.05;62.98;100689.38;1701917;79;27548;-76
2021/04/03 11:52:43;;;;;;;2.02;1.17;;;;;;;7.22;63.55;100688.92;1732830;80;25879;-74